createdAt,value
2018-04-02T04:43:31.661Z,99.90
2018-04-02T04:46:19.033Z,99.90
2018-04-02T04:49:05.452Z,99.90
2018-04-02T04:51:53.154Z,99.90
2018-04-02T04:54:35.108Z,99.90
2018-04-02T05:00:22.730Z,99.90
2018-04-02T05:03:09.310Z,99.90
2018-04-02T05:06:01.689Z,99.90
2018-04-02T05:09:05.474Z,99.90
2018-04-02T05:14:55.355Z,99.90
2018-04-02T05:17:53.676Z,99.90
2018-04-02T05:20:31.909Z,99.90
2018-04-02T05:29:26.572Z,99.90
2018-04-02T05:32:08.380Z,99.90
2018-04-02T05:34:49.914Z,99.90
2018-04-02T05:37:52.749Z,99.90
2018-04-02T05:40:32.060Z,99.90
2018-04-02T05:43:19.614Z,99.90
2018-04-02T05:46:15.225Z,99.90
2018-04-02T05:49:07.826Z,99.90
2018-04-02T05:51:48.803Z,99.90
2018-04-02T05:54:32.580Z,99.90
2018-04-02T05:57:45.173Z,99.90
2018-04-02T06:00:35.124Z,99.90
2018-04-02T06:06:40.180Z,99.90
2018-04-02T06:09:27.773Z,99.90
2018-04-02T06:12:12.628Z,99.90
2018-04-02T06:14:55.292Z,99.90
2018-04-02T06:20:56.253Z,99.90
2018-04-02T06:23:35.635Z,99.90
2018-04-02T06:26:36.087Z,99.90
2018-04-02T06:29:14.845Z,99.90
2018-04-02T06:32:47.888Z,99.90
2018-04-02T06:35:34.085Z,99.90
2018-04-02T06:38:24.822Z,99.90
2018-04-02T06:41:06.757Z,99.90
2018-04-02T06:44:22.097Z,99.90
2018-04-02T06:47:08.832Z,99.90
2018-04-02T06:50:13.381Z,99.90
2018-04-02T06:52:51.645Z,99.90
2018-04-02T06:55:49.591Z,99.90
2018-04-02T06:58:38.008Z,99.90
2018-04-02T07:01:31.214Z,99.90
2018-04-02T07:09:56.380Z,99.90
2018-04-02T07:31:12.292Z,99.90
2018-04-02T07:34:10.059Z,99.90
2018-04-02T07:43:29.453Z,99.90
2018-04-02T07:46:38.603Z,99.80
2018-04-02T07:49:24.678Z,99.80
2018-04-02T07:52:30.821Z,98.90
2018-04-02T07:59:02.791Z,98.10
2018-04-02T08:01:57.231Z,98.00
2018-04-02T08:10:43.884Z,97.30
2018-04-02T08:13:44.573Z,96.40
2018-04-02T08:16:44.682Z,96.20
2018-04-02T08:19:37.887Z,96.10
2018-04-02T08:28:04.626Z,95.60
2018-04-02T08:34:54.645Z,95.90
2018-04-02T08:37:53.990Z,95.40
2018-04-02T08:41:36.565Z,95.20
2018-04-02T08:57:30.676Z,94.30
2018-04-02T09:03:49.305Z,93.00
2018-04-02T09:06:55.972Z,93.00
2018-04-02T09:12:43.292Z,94.30
2018-04-02T09:18:31.527Z,94.30
2018-04-02T09:21:34.589Z,94.30
2018-04-02T09:24:31.458Z,94.40
2018-04-02T10:51:47.050Z,85.50
2018-04-02T10:57:44.052Z,85.10
2018-04-02T11:01:09.849Z,84.70
2018-04-02T11:03:54.950Z,85.20
2018-04-02T11:07:08.483Z,85.20
2018-04-02T11:09:54.173Z,85.50
2018-04-02T11:12:52.730Z,86.30
2018-04-02T11:15:57.093Z,86.20
2018-04-02T11:30:18.712Z,85.40
2018-04-02T11:33:30.843Z,80.20
2018-04-02T11:36:31.693Z,77.40
2018-04-02T11:42:20.213Z,76.70
2018-04-02T11:45:20.280Z,75.30
2018-04-02T11:48:17.102Z,74.90
2018-04-02T11:57:15.072Z,74.50
2018-04-02T12:00:35.551Z,74.40
2018-04-02T12:09:47.329Z,74.80
2018-04-02T12:25:31.512Z,75.70
2018-04-02T12:40:52.305Z,74.80
2018-04-02T12:44:10.401Z,74.30
2018-04-02T12:47:29.057Z,76.50
2018-04-02T12:50:16.634Z,76.50
2018-04-02T12:53:04.562Z,75.20
2018-04-02T12:56:07.795Z,76.30
2018-04-02T13:05:08.860Z,75.00
2018-04-02T13:23:49.510Z,75.30
2018-04-02T13:44:41.567Z,76.80
2018-04-02T13:47:37.092Z,75.30
2018-04-02T13:54:34.822Z,75.80
2018-04-02T13:57:24.415Z,76.30
2018-04-02T14:00:27.797Z,76.70
2018-04-02T14:04:14.559Z,76.00
2018-04-02T14:07:15.829Z,76.90
2018-04-02T14:10:14.342Z,77.30
2018-04-02T14:13:07.872Z,77.10
2018-04-02T14:15:55.019Z,76.90
2018-04-02T14:18:51.250Z,76.50
2018-04-02T14:21:52.505Z,74.70
2018-04-02T14:37:04.420Z,77.70
2018-04-02T14:39:55.361Z,77.70
2018-04-02T14:42:55.636Z,78.10
2018-04-02T14:48:44.112Z,77.20
2018-04-02T14:54:37.080Z,77.20
2018-04-02T14:57:43.480Z,77.20
2018-04-02T15:09:45.671Z,77.30
2018-04-02T15:12:35.342Z,89.20
2018-04-02T15:28:08.130Z,88.80
2018-04-02T15:31:18.667Z,88.00
2018-04-02T15:38:27.783Z,87.20
2018-04-02T15:41:33.708Z,87.80
2018-04-02T15:57:04.099Z,86.30
2018-04-02T23:32:28.393Z,97.10
2018-04-02T23:35:23.352Z,97.70
2018-04-02T23:38:17.277Z,98.20
2018-04-02T23:41:07.833Z,98.40
2018-04-02T23:43:59.992Z,98.40
2018-04-02T23:46:47.485Z,98.50
2018-04-02T23:49:32.219Z,98.70
2018-04-02T23:52:19.298Z,98.60
2018-04-02T23:55:12.335Z,98.60
2018-04-02T23:57:57.267Z,98.80
